createdAt,value
2023-02-11T00:02:11.600Z,99252.63
2023-02-11T00:07:13.696Z,99255.84
2023-02-11T00:12:15.599Z,99256.78
2023-02-11T00:17:17.709Z,99270.59
2023-02-11T00:22:19.880Z,99273.13
2023-02-11T00:27:21.732Z,99265.16
2023-02-11T00:32:23.690Z,99261.50
2023-02-11T00:37:25.576Z,99270.88
2023-02-11T00:42:27.526Z,99263.00
2023-02-11T00:47:29.615Z,99273.19
2023-02-11T00:52:32.223Z,99273.13
2023-02-11T00:57:33.873Z,99278.94
2023-02-11T01:02:35.790Z,99281.47
2023-02-11T01:07:37.752Z,99286.53
2023-02-11T01:12:39.971Z,99279.59
2023-02-11T01:17:42.014Z,99294.22
2023-02-11T01:22:43.933Z,99294.09
2023-02-11T01:27:45.886Z,99300.88
2023-02-11T01:32:47.793Z,99310.25
2023-02-11T01:37:49.811Z,99308.53
2023-02-11T01:42:51.712Z,99319.72
2023-02-11T01:47:53.655Z,99305.00
2023-02-11T01:52:55.547Z,99297.28
2023-02-11T01:58:00.969Z,99310.28
2023-02-11T02:03:11.488Z,99306.28
2023-02-11T02:08:27.237Z,99308.25
2023-02-11T02:13:30.389Z,99313.66
2023-02-11T02:19:10.490Z,99307.69
2023-02-11T02:24:24.372Z,99306.13
2023-02-11T02:29:43.921Z,99303.66
2023-02-11T02:35:04.400Z,99308.81
2023-02-11T02:40:11.438Z,99302.81
2023-02-11T02:45:14.347Z,99305.44
2023-02-11T02:50:17.439Z,99304.56
2023-02-11T02:55:34.365Z,99302.88
2023-02-11T03:01:03.949Z,99303.72
2023-02-11T03:06:34.375Z,99299.41
2023-02-11T03:11:36.318Z,99298.28
2023-02-11T03:16:38.239Z,99300.78
2023-02-11T03:21:40.847Z,99298.06
2023-02-11T03:27:08.594Z,99297.00
2023-02-11T03:32:14.485Z,99285.59
2023-02-11T03:37:24.740Z,99282.97
2023-02-11T03:42:28.194Z,99289.84
2023-02-11T03:47:30.127Z,99289.75
2023-02-11T03:52:32.125Z,99281.97
2023-02-11T03:57:34.048Z,99275.91
2023-02-11T04:02:36.641Z,99282.50
2023-02-11T04:07:38.376Z,99288.19
2023-02-11T04:12:40.422Z,99280.34
2023-02-11T04:17:42.688Z,99287.06
2023-02-11T04:22:44.624Z,99277.56
2023-02-11T04:27:46.459Z,99266.19
2023-02-11T04:32:48.449Z,99259.19
2023-02-11T04:37:50.249Z,99257.38
2023-02-11T04:42:52.141Z,99272.78
2023-02-11T04:47:54.170Z,99269.16
2023-02-11T04:52:56.099Z,99272.63
2023-02-11T04:57:58.076Z,99272.69
2023-02-11T05:03:00.658Z,99280.41
2023-02-11T05:08:02.394Z,99290.50
2023-02-11T05:13:04.822Z,99285.31
2023-02-11T05:18:06.663Z,99289.69
2023-02-11T05:23:08.533Z,99283.94
2023-02-11T05:28:10.495Z,99285.97
2023-02-11T05:33:13.850Z,99279.41
2023-02-11T05:38:15.704Z,99281.28
2023-02-11T05:43:17.758Z,99283.22
2023-02-11T05:48:19.799Z,99282.53
2023-02-11T05:53:21.770Z,99274.94
2023-02-11T05:58:23.682Z,99273.38
2023-02-11T06:03:25.623Z,99273.63
2023-02-11T06:08:27.675Z,99267.50
2023-02-11T06:13:29.740Z,99266.59
2023-02-11T06:18:31.629Z,99259.94
2023-02-11T06:23:33.514Z,99259.00
2023-02-11T06:28:35.531Z,99263.19
2023-02-11T06:33:37.715Z,99262.56
2023-02-11T06:38:39.696Z,99250.66
2023-02-11T06:43:41.672Z,99262.84
2023-02-11T06:48:44.932Z,99269.59
2023-02-11T06:53:47.144Z,99273.47
2023-02-11T06:58:51.865Z,99280.75
2023-02-11T07:03:53.882Z,99272.25
2023-02-11T07:08:55.987Z,99275.69
2023-02-11T07:14:01.497Z,99259.16
2023-02-11T07:19:03.492Z,99255.19
2023-02-11T07:24:11.060Z,99261.97
2023-02-11T07:29:13.449Z,99251.88
2023-02-11T07:34:15.417Z,99239.97
2023-02-11T07:40:06.517Z,99231.28
2023-02-11T07:45:08.764Z,99237.34
2023-02-11T07:50:10.787Z,99228.69
2023-02-11T07:55:12.752Z,99232.06
2023-02-11T08:00:15.331Z,99224.41
2023-02-11T08:05:17.312Z,99234.75
2023-02-11T08:10:19.408Z,99220.25
2023-02-11T08:15:21.418Z,99221.00
2023-02-11T08:20:23.281Z,99214.03
2023-02-11T08:25:25.228Z,99215.84
2023-02-11T08:30:27.643Z,99205.66
2023-02-11T08:35:29.679Z,99197.22
2023-02-11T08:40:31.550Z,99179.94
2023-02-11T08:45:33.522Z,99185.91
2023-02-11T08:50:35.510Z,99179.63
2023-02-11T08:55:37.504Z,99154.47
2023-02-11T09:00:39.446Z,99152.66
2023-02-11T09:05:47.745Z,99131.31
2023-02-11T09:10:49.906Z,99111.66
2023-02-11T09:15:52.028Z,99104.00
2023-02-11T09:20:54.133Z,99089.22
2023-02-11T09:25:56.115Z,99071.94
2023-02-11T09:30:58.005Z,99065.75
2023-02-11T09:36:04.112Z,99050.44
2023-02-11T09:41:05.968Z,99057.25
2023-02-11T09:46:09.391Z,99045.31
2023-02-11T09:51:20.867Z,99045.41
2023-02-11T09:56:23.792Z,99038.41
2023-02-11T10:01:39.109Z,99019.44
2023-02-11T10:06:49.410Z,99022.94
2023-02-11T10:12:15.475Z,99021.09
2023-02-11T10:17:35.268Z,98998.69
2023-02-11T10:22:40.663Z,98997.75
2023-02-11T10:27:42.563Z,98983.00
2023-02-11T10:32:59.394Z,98971.97
2023-02-11T10:38:01.302Z,98975.44
2023-02-11T10:43:04.979Z,98956.50
2023-02-11T10:48:27.353Z,98946.34
2023-02-11T10:53:29.248Z,98926.59
2023-02-11T10:58:34.639Z,98935.34
2023-02-11T11:03:45.815Z,98927.56
2023-02-11T11:08:49.222Z,98923.28
2023-02-11T11:13:54.072Z,98898.28
2023-02-11T11:19:08.162Z,98864.69
2023-02-11T11:24:18.932Z,98871.53
2023-02-11T11:29:24.804Z,98852.63
2023-02-11T11:34:38.855Z,98846.53
2023-02-11T11:39:40.859Z,98833.66
2023-02-11T11:44:42.794Z,98832.75
2023-02-11T11:50:06.426Z,98818.00
2023-02-11T11:55:18.516Z,98805.13
2023-02-11T12:00:22.657Z,98801.66
2023-02-11T12:05:24.415Z,98793.94
2023-02-11T12:10:38.271Z,98778.47
2023-02-11T12:15:55.528Z,98769.84
2023-02-11T12:21:00.335Z,98768.94
2023-02-11T12:26:24.765Z,98773.22
2023-02-11T12:31:45.741Z,98756.75
2023-02-11T12:37:07.927Z,98745.63
2023-02-11T12:42:40.561Z,98727.59
2023-02-11T12:48:19.138Z,98711.19
2023-02-11T12:54:01.117Z,98718.03
2023-02-11T12:59:03.087Z,98695.66
2023-02-11T13:04:08.867Z,98687.03
2023-02-11T13:09:17.364Z,98668.94
2023-02-11T13:14:34.908Z,98652.53
2023-02-11T13:19:44.659Z,98650.84
2023-02-11T13:25:11.138Z,98631.06
2023-02-11T13:30:28.931Z,98623.31
2023-02-11T13:35:37.855Z,98599.19
2023-02-11T13:40:39.853Z,98595.72
2023-02-11T13:45:44.185Z,98577.63
2023-02-11T13:50:50.406Z,98568.13
2023-02-11T13:55:54.774Z,98560.38
2023-02-11T14:00:56.924Z,98532.81
2023-02-11T14:06:19.200Z,98520.78
2023-02-11T14:11:24.104Z,98501.00
2023-02-11T14:16:37.525Z,98494.13
2023-02-11T14:21:40.337Z,98472.63
2023-02-11T14:27:04.310Z,98459.72
2023-02-11T14:32:38.488Z,98475.16
2023-02-11T14:37:50.817Z,98431.31
2023-02-11T14:42:54.518Z,98427.84
2023-02-11T14:48:14.181Z,98409.81
2023-02-11T14:53:23.164Z,98393.47
2023-02-11T14:58:27.042Z,98383.16
2023-02-11T15:03:42.690Z,98376.25
2023-02-11T15:08:49.427Z,98350.50
2023-02-11T15:13:53.079Z,98369.38
2023-02-11T15:18:58.559Z,98359.06
2023-02-11T15:24:05.674Z,98337.56
2023-02-11T15:29:16.704Z,98341.88
2023-02-11T15:34:18.583Z,98328.97
2023-02-11T15:39:41.296Z,98325.53
2023-02-11T15:44:43.162Z,98316.94
2023-02-11T15:49:45.724Z,98294.59
2023-02-11T15:54:47.706Z,98287.72
2023-02-11T15:59:51.271Z,98279.97
2023-02-11T16:05:01.699Z,98268.78
2023-02-11T16:10:14.320Z,98273.94
2023-02-11T16:15:35.339Z,98257.59
2023-02-11T16:20:37.234Z,98249.81
2023-02-11T16:25:39.186Z,98242.97
2023-02-11T16:30:41.296Z,98242.94
2023-02-11T16:35:43.134Z,98224.03
2023-02-11T16:40:45.160Z,98214.56
2023-02-11T16:45:46.994Z,98210.28
2023-02-11T16:50:52.874Z,98202.53
2023-02-11T16:55:55.193Z,98181.88
2023-02-11T17:00:57.101Z,98187.88
2023-02-11T17:05:59.664Z,98181.88
2023-02-11T17:11:02.513Z,98168.06
2023-02-11T17:16:04.256Z,98159.44
2023-02-11T17:21:07.394Z,98153.41
2023-02-11T17:26:09.352Z,98138.78
2023-02-11T17:31:11.539Z,98128.47
2023-02-11T17:36:13.456Z,98125.88
2023-02-11T17:41:15.452Z,98106.94
2023-02-11T17:46:17.501Z,98097.47
2023-02-11T17:51:29.643Z,98087.16
2023-02-11T17:56:35.481Z,98082.84
2023-02-11T18:01:37.826Z,98062.16
2023-02-11T18:06:39.816Z,98046.66
2023-02-11T18:11:41.950Z,98038.06
2023-02-11T18:16:44.012Z,98037.16
2023-02-11T18:21:45.944Z,98019.94
2023-02-11T18:26:48.019Z,98009.63
2023-02-11T18:31:50.026Z,98012.19
2023-02-11T18:36:52.128Z,97991.47
2023-02-11T18:41:57.196Z,97987.16
2023-02-11T18:46:59.781Z,97985.47
2023-02-11T18:52:01.829Z,97975.97
2023-02-11T18:57:03.963Z,97971.69
2023-02-11T19:02:05.839Z,97970.81
2023-02-11T19:07:07.813Z,97963.03
2023-02-11T19:12:09.782Z,97954.47
2023-02-11T19:17:11.880Z,97950.94
2023-02-11T19:22:13.801Z,97928.56
2023-02-11T19:27:15.739Z,97944.91
2023-02-11T19:32:17.726Z,97930.28
2023-02-11T19:37:19.723Z,97913.00
2023-02-11T19:42:21.754Z,97920.69
2023-02-11T19:47:23.580Z,97905.19
2023-02-11T19:52:25.773Z,97902.56
2023-02-11T19:57:27.670Z,97896.59
2023-02-11T20:02:29.594Z,97875.94
2023-02-11T20:07:31.619Z,97884.53
2023-02-11T20:12:33.608Z,97879.38
2023-02-11T20:17:35.611Z,97872.47
2023-02-11T20:22:37.556Z,97862.94
2023-02-11T20:27:39.572Z,97862.88
2023-02-11T20:32:41.613Z,97857.66
2023-02-11T20:37:44.241Z,97853.41
2023-02-11T20:42:45.969Z,97855.09
2023-02-11T20:47:47.828Z,97851.50
2023-02-11T20:52:49.728Z,97848.97
2023-02-11T20:57:51.569Z,97844.53
2023-02-11T21:02:53.566Z,97839.34
2023-02-11T21:07:55.413Z,97841.94
2023-02-11T21:12:57.413Z,97835.88
2023-02-11T21:17:59.326Z,97840.25
2023-02-11T21:23:01.304Z,97842.84
2023-02-11T21:28:03.502Z,97845.28
2023-02-11T21:33:05.772Z,97838.38
2023-02-11T21:38:07.709Z,97838.47
2023-02-11T21:43:09.586Z,97836.72
2023-02-11T21:48:11.674Z,97835.88
2023-02-11T21:53:13.781Z,97832.41
2023-02-11T21:58:15.682Z,97827.09
2023-02-11T22:03:17.607Z,97829.75
2023-02-11T22:08:20.308Z,97824.59
2023-02-11T22:13:22.077Z,97821.09
2023-02-11T22:18:23.938Z,97819.38
2023-02-11T22:23:25.732Z,97829.66
2023-02-11T22:28:27.811Z,97834.69
2023-02-11T22:33:29.842Z,97833.84
2023-02-11T22:38:32.191Z,97836.44
2023-02-11T22:43:34.144Z,97838.13
2023-02-11T22:48:36.114Z,97841.63
2023-02-11T22:53:38.013Z,97849.31
2023-02-11T22:58:39.983Z,97851.84
2023-02-11T23:03:41.892Z,97866.34
2023-02-11T23:08:44.034Z,97871.44
2023-02-11T23:13:46.476Z,97879.16
2023-02-11T23:18:48.920Z,97872.22
2023-02-11T23:23:57.418Z,97892.81
2023-02-11T23:28:59.562Z,97896.22
2023-02-11T23:34:01.438Z,97900.56
2023-02-11T23:39:03.821Z,97906.75
2023-02-11T23:44:05.778Z,97919.75
2023-02-11T23:49:07.636Z,97942.28
2023-02-11T23:54:12.746Z,97933.97
2023-02-11T23:59:14.648Z,97948.81
